createdAt,value
2019-05-05T00:00:49.431Z,74.50
2019-05-05T00:03:34.281Z,75.20
2019-05-05T00:06:06.869Z,75.90
2019-05-05T00:08:36.778Z,76.10
2019-05-05T00:11:30.778Z,76.00
2019-05-05T00:14:21.833Z,75.90
2019-05-05T00:16:58.364Z,76.40
2019-05-05T00:19:33.045Z,76.60
2019-05-05T00:21:59.296Z,76.40
2019-05-05T00:24:27.928Z,76.70
2019-05-05T00:26:57.104Z,77.00
2019-05-05T00:29:25.530Z,76.40
2019-05-05T00:31:54.701Z,75.80
2019-05-05T00:34:24.487Z,75.40
2019-05-05T00:36:55.245Z,75.50
2019-05-05T00:39:25.492Z,75.60
2019-05-05T00:41:55.476Z,75.50
2019-05-05T00:44:24.712Z,75.10
2019-05-05T00:47:09.641Z,74.50
2019-05-05T00:49:46.385Z,75.20
2019-05-05T00:52:11.099Z,76.00
2019-05-05T00:54:39.735Z,75.80
2019-05-05T00:57:08.397Z,76.70
2019-05-05T00:59:36.875Z,76.80
2019-05-05T01:02:16.551Z,76.80
2019-05-05T01:04:58.430Z,76.00
2019-05-05T01:07:27.430Z,75.80
2019-05-05T01:09:56.106Z,75.80
2019-05-05T01:12:26.140Z,75.80
2019-05-05T01:14:55.371Z,75.80
2019-05-05T01:17:25.269Z,75.40
2019-05-05T01:20:03.144Z,76.00
2019-05-05T01:22:27.189Z,76.10
2019-05-05T01:24:56.240Z,76.70
2019-05-05T01:27:25.446Z,76.40
2019-05-05T01:29:54.677Z,76.70
2019-05-05T01:32:28.023Z,76.10
2019-05-05T01:34:56.835Z,75.90
2019-05-05T01:37:45.069Z,75.80
2019-05-05T01:40:29.395Z,75.40
2019-05-05T01:42:57.891Z,75.00
2019-05-05T01:45:26.925Z,75.20
2019-05-05T01:47:55.462Z,75.80
2019-05-05T01:50:24.827Z,76.10
2019-05-05T01:52:55.456Z,76.00
2019-05-05T01:55:25.214Z,77.90
2019-05-05T01:57:54.462Z,77.60
2019-05-05T02:00:25.243Z,77.90
2019-05-05T02:02:55.360Z,78.00
2019-05-05T02:05:24.464Z,77.40
2019-05-05T02:07:55.350Z,77.70
2019-05-05T02:10:25.632Z,77.90
2019-05-05T02:12:55.233Z,78.00
2019-05-05T02:15:25.062Z,78.40
2019-05-05T02:17:55.040Z,78.60
2019-05-05T02:20:51.681Z,78.50
2019-05-05T02:23:20.209Z,78.10
2019-05-05T02:25:49.912Z,77.90
2019-05-05T02:28:18.826Z,77.50
2019-05-05T02:31:05.402Z,77.90
2019-05-05T02:33:35.387Z,77.40
2019-05-05T02:36:05.576Z,77.90
2019-05-05T02:38:35.559Z,79.70
2019-05-05T02:41:05.207Z,78.60
2019-05-05T02:43:35.637Z,78.30
2019-05-05T02:46:25.400Z,78.50
2019-05-05T02:48:57.789Z,78.30
2019-05-05T02:51:28.225Z,78.20
2019-05-05T02:53:59.677Z,78.10
2019-05-05T02:56:35.925Z,79.00
2019-05-05T02:59:08.278Z,78.50
2019-05-05T03:01:44.471Z,77.50
2019-05-05T03:04:14.155Z,77.80
2019-05-05T03:06:47.955Z,77.50
2019-05-05T03:09:19.879Z,78.00
2019-05-05T03:11:54.003Z,77.70
2019-05-05T03:14:25.440Z,77.40
2019-05-05T03:16:54.881Z,77.50
2019-05-05T03:19:25.301Z,77.30
2019-05-05T03:21:56.533Z,77.00
2019-05-05T03:24:25.307Z,77.30
2019-05-05T03:26:54.207Z,77.40
2019-05-05T03:29:24.559Z,77.40
2019-05-05T03:31:56.250Z,77.70
2019-05-05T03:34:24.094Z,77.70
2019-05-05T03:36:53.710Z,77.90
2019-05-05T03:39:28.043Z,77.60
2019-05-05T03:42:28.665Z,77.70
2019-05-05T03:45:00.957Z,77.50
2019-05-05T03:47:30.456Z,77.40
2019-05-05T03:49:59.200Z,76.80
2019-05-05T03:52:28.649Z,77.10
2019-05-05T03:54:57.505Z,77.00
2019-05-05T03:57:26.314Z,77.50
2019-05-05T03:59:55.798Z,77.20
2019-05-05T04:02:44.404Z,77.20
2019-05-05T04:05:31.515Z,76.90
2019-05-05T04:08:01.242Z,76.90
2019-05-05T04:10:29.701Z,76.90
2019-05-05T04:12:59.750Z,77.40
2019-05-05T04:15:30.963Z,77.10
2019-05-05T04:18:17.076Z,77.30
2019-05-05T04:20:45.695Z,76.70
2019-05-05T04:23:16.303Z,76.70
2019-05-05T04:25:44.802Z,76.40
2019-05-05T04:28:13.763Z,76.10
2019-05-05T04:30:44.489Z,76.20
2019-05-05T04:33:14.293Z,76.20
2019-05-05T04:35:44.405Z,76.10
2019-05-05T04:38:13.917Z,76.50
2019-05-05T04:40:43.612Z,76.20
2019-05-05T04:43:14.124Z,76.50
2019-05-05T04:45:43.666Z,76.50
2019-05-05T04:48:17.576Z,76.10
2019-05-05T04:51:08.937Z,76.30
2019-05-05T04:54:03.876Z,76.70
2019-05-05T04:56:34.304Z,76.90
2019-05-05T04:59:04.068Z,76.80
2019-05-05T05:01:33.719Z,76.40
2019-05-05T05:04:24.195Z,76.70
2019-05-05T05:06:55.723Z,76.80
2019-05-05T05:09:24.390Z,76.50
2019-05-05T05:11:54.735Z,77.10
2019-05-05T05:14:24.808Z,76.70
2019-05-05T05:16:55.826Z,77.10
2019-05-05T05:19:24.241Z,77.20
2019-05-05T05:22:01.319Z,77.30
2019-05-05T05:24:25.373Z,77.40
2019-05-05T05:26:55.531Z,76.70
2019-05-05T05:29:24.379Z,76.90
2019-05-05T05:31:53.585Z,76.30
2019-05-05T05:34:23.860Z,76.30
2019-05-05T05:36:53.653Z,76.20
2019-05-05T05:39:35.727Z,76.70
2019-05-05T05:42:05.552Z,76.30
2019-05-05T05:45:04.105Z,76.30
2019-05-05T05:47:50.657Z,76.40
2019-05-05T05:50:29.659Z,76.30
2019-05-05T05:52:58.347Z,75.90
2019-05-05T05:55:26.765Z,76.50
2019-05-05T05:57:55.140Z,76.00
2019-05-05T06:00:23.788Z,75.80
2019-05-05T06:02:54.424Z,76.10
2019-05-05T06:05:23.803Z,76.30
2019-05-05T06:07:54.467Z,76.10
2019-05-05T06:10:26.663Z,75.90
2019-05-05T06:12:54.631Z,76.10
2019-05-05T06:15:24.554Z,76.00
2019-05-05T06:17:54.479Z,76.30
2019-05-05T06:20:23.843Z,75.80
2019-05-05T06:22:53.575Z,75.80
2019-05-05T06:25:26.565Z,75.70
2019-05-05T06:27:54.925Z,75.50
2019-05-05T06:30:24.428Z,74.90
2019-05-05T06:32:54.468Z,74.10
2019-05-05T06:35:24.437Z,73.70
2019-05-05T06:37:54.254Z,73.30
2019-05-05T06:40:41.814Z,73.50
2019-05-05T06:43:23.137Z,73.10
2019-05-05T06:45:54.511Z,72.60
2019-05-05T06:48:23.748Z,72.30
2019-05-05T06:50:54.442Z,71.00
2019-05-05T06:53:23.937Z,69.60
2019-05-05T06:55:54.256Z,69.60
2019-05-05T06:58:24.163Z,69.00
2019-05-05T07:00:54.303Z,69.00
2019-05-05T07:03:24.335Z,68.70
2019-05-05T07:05:53.939Z,68.50
2019-05-05T07:08:24.393Z,68.10
2019-05-05T07:10:54.868Z,67.00
2019-05-05T07:13:24.429Z,66.10
2019-05-05T07:15:54.808Z,65.70
2019-05-05T07:18:24.815Z,65.60
2019-05-05T07:20:54.474Z,66.00
2019-05-05T07:23:24.596Z,65.50
2019-05-05T07:25:55.174Z,64.80
2019-05-05T07:28:23.775Z,64.00
2019-05-05T07:30:54.592Z,63.40
2019-05-05T07:33:23.845Z,62.80
2019-05-05T07:36:15.443Z,63.30
2019-05-05T07:38:44.312Z,63.10
2019-05-05T07:41:14.089Z,63.30
2019-05-05T07:43:43.754Z,63.20
2019-05-05T07:46:13.596Z,63.30
2019-05-05T07:48:44.214Z,60.90
2019-05-05T07:51:14.204Z,60.10
2019-05-05T07:53:44.194Z,60.30
2019-05-05T07:56:14.495Z,60.70
2019-05-05T07:58:43.879Z,60.50
2019-05-05T08:01:14.144Z,60.00
2019-05-05T08:03:44.579Z,59.40
2019-05-05T08:06:14.487Z,59.20
2019-05-05T08:08:44.276Z,58.80
2019-05-05T08:11:14.707Z,59.00
2019-05-05T08:13:44.295Z,58.60
2019-05-05T08:16:30.054Z,58.40
2019-05-05T08:19:31.768Z,58.40
2019-05-05T08:22:00.447Z,58.90
2019-05-05T08:24:47.188Z,58.60
2019-05-05T08:27:27.747Z,58.20
2019-05-05T08:30:03.046Z,57.40
2019-05-05T08:32:35.692Z,57.60
2019-05-05T08:35:05.985Z,57.80
2019-05-05T08:37:34.664Z,56.10
2019-05-05T08:40:05.741Z,55.70
2019-05-05T08:42:34.260Z,55.30
2019-05-05T08:45:04.601Z,55.00
2019-05-05T08:47:34.586Z,54.80
2019-05-05T08:50:04.226Z,55.00
2019-05-05T08:52:34.270Z,55.20
2019-05-05T08:55:04.674Z,54.20
2019-05-05T08:57:34.178Z,54.80
2019-05-05T09:00:04.876Z,53.90
2019-05-05T09:02:35.970Z,53.90
2019-05-05T09:05:04.359Z,54.10
2019-05-05T09:07:33.671Z,53.60
2019-05-05T09:10:03.876Z,54.20
2019-05-05T09:12:33.935Z,53.80
2019-05-05T09:15:04.429Z,52.70
2019-05-05T09:17:33.630Z,53.00
2019-05-05T09:20:04.568Z,52.50
2019-05-05T09:22:34.840Z,52.50
2019-05-05T09:25:24.052Z,51.20
2019-05-05T09:27:58.372Z,52.10
2019-05-05T09:30:44.328Z,52.10
2019-05-05T09:33:14.224Z,52.70
2019-05-05T09:35:43.751Z,52.00
2019-05-05T09:38:14.680Z,50.80
2019-05-05T09:40:44.039Z,50.00
2019-05-05T09:43:14.743Z,49.00
2019-05-05T09:45:44.260Z,48.40
2019-05-05T09:48:13.904Z,47.90
2019-05-05T09:50:43.635Z,48.10
2019-05-05T09:53:14.338Z,48.30
2019-05-05T09:55:44.306Z,48.90
2019-05-05T09:58:13.746Z,49.90
2019-05-05T10:00:44.671Z,50.10
2019-05-05T10:03:14.583Z,49.90
2019-05-05T10:05:43.769Z,50.10
2019-05-05T10:08:14.308Z,50.10
2019-05-05T10:10:44.250Z,51.00
2019-05-05T10:13:14.874Z,50.30
2019-05-05T10:15:44.338Z,49.70
2019-05-05T10:18:14.195Z,49.80
2019-05-05T10:20:42.976Z,46.50
2019-05-05T10:23:11.377Z,45.70
2019-05-05T10:25:44.778Z,45.10
2019-05-05T10:28:15.399Z,43.90
2019-05-05T10:30:43.974Z,43.90
2019-05-05T10:33:14.225Z,44.40
2019-05-05T10:35:43.831Z,43.60
2019-05-05T10:38:14.288Z,44.10
2019-05-05T10:40:44.667Z,44.60
2019-05-05T10:43:14.812Z,44.70
2019-05-05T10:45:44.302Z,44.90
2019-05-05T10:48:14.369Z,45.40
2019-05-05T10:50:44.412Z,45.80
2019-05-05T10:53:13.724Z,46.30
2019-05-05T10:55:44.850Z,46.90
2019-05-05T10:58:13.805Z,47.50
2019-05-05T11:00:50.068Z,47.60
2019-05-05T11:03:18.927Z,47.60
2019-05-05T11:05:47.637Z,47.50
2019-05-05T11:08:17.454Z,47.40
2019-05-05T11:10:46.213Z,47.20
2019-05-05T11:13:15.325Z,47.10
2019-05-05T11:15:44.421Z,47.00
2019-05-05T11:18:14.793Z,46.70
2019-05-05T11:20:45.802Z,46.70
2019-05-05T11:23:15.252Z,46.90
2019-05-05T11:25:44.608Z,47.10
2019-05-05T11:28:13.567Z,46.90
2019-05-05T11:30:44.219Z,46.80
2019-05-05T11:33:30.975Z,45.90
2019-05-05T11:36:13.702Z,46.10
2019-05-05T11:38:44.418Z,45.70
2019-05-05T11:41:14.374Z,45.10
2019-05-05T11:43:43.113Z,44.90
2019-05-05T11:46:13.958Z,44.40
2019-05-05T11:48:43.918Z,44.80
2019-05-05T11:51:14.923Z,45.20
2019-05-05T11:53:44.698Z,45.50
2019-05-05T11:56:15.926Z,44.40
2019-05-05T11:58:44.533Z,44.50
2019-05-05T12:01:13.822Z,44.80
2019-05-05T12:03:44.345Z,43.20
2019-05-05T12:06:14.709Z,43.50
2019-05-05T12:08:45.880Z,43.60
2019-05-05T12:11:15.024Z,43.60
2019-05-05T12:13:44.076Z,41.90
2019-05-05T12:16:14.541Z,41.80
2019-05-05T12:18:44.836Z,41.20
2019-05-05T12:21:14.914Z,41.10
2019-05-05T12:23:44.435Z,41.00
2019-05-05T12:26:35.484Z,41.20
2019-05-05T12:29:07.328Z,40.50
2019-05-05T12:31:41.855Z,40.20
2019-05-05T12:34:10.465Z,40.40
2019-05-05T12:36:38.968Z,38.70
2019-05-05T12:39:14.160Z,37.20
2019-05-05T12:41:43.663Z,36.70
2019-05-05T12:44:19.994Z,36.70
2019-05-05T12:46:56.635Z,36.90
2019-05-05T12:49:25.473Z,35.20
2019-05-05T12:51:54.489Z,35.70
2019-05-05T12:54:24.523Z,36.00
2019-05-05T12:56:53.990Z,36.40
2019-05-05T12:59:25.686Z,36.80
2019-05-05T13:01:54.817Z,36.60
2019-05-05T13:04:24.587Z,37.00
2019-05-05T13:06:54.082Z,35.70
2019-05-05T13:09:24.380Z,35.00
2019-05-05T13:11:54.160Z,35.10
2019-05-05T13:14:22.810Z,35.10
2019-05-05T13:16:53.919Z,35.00
2019-05-05T13:19:37.214Z,35.10
2019-05-05T13:22:27.158Z,34.90
2019-05-05T13:25:15.618Z,35.60
2019-05-05T13:27:44.502Z,35.70
2019-05-05T13:30:13.438Z,34.80
2019-05-05T13:32:44.076Z,35.50
2019-05-05T13:35:14.350Z,35.40
2019-05-05T13:37:44.363Z,37.10
2019-05-05T13:40:13.224Z,36.10
2019-05-05T13:42:43.877Z,36.50
2019-05-05T13:45:34.195Z,37.10
2019-05-05T13:48:03.617Z,36.80
2019-05-05T13:50:38.153Z,37.20
2019-05-05T13:53:06.812Z,37.00
2019-05-05T13:55:35.447Z,36.90
2019-05-05T13:58:04.482Z,36.90
2019-05-05T14:00:33.815Z,36.10
2019-05-05T14:03:03.932Z,36.00
2019-05-05T14:05:34.401Z,35.70
2019-05-05T14:08:04.251Z,35.90
2019-05-05T14:10:33.432Z,35.70
2019-05-05T14:13:03.692Z,35.30
2019-05-05T14:15:34.160Z,35.20
2019-05-05T14:18:03.786Z,35.80
2019-05-05T14:20:34.508Z,36.10
2019-05-05T14:23:04.882Z,36.40
2019-05-05T14:25:33.513Z,36.40
2019-05-05T14:28:03.872Z,36.30
2019-05-05T14:31:01.810Z,36.70
2019-05-05T14:33:49.097Z,36.00
2019-05-05T14:36:40.044Z,35.70
2019-05-05T14:39:10.124Z,36.20
2019-05-05T14:41:38.787Z,35.70
2019-05-05T14:44:07.491Z,36.70
2019-05-05T14:46:36.700Z,35.70
2019-05-05T14:49:05.859Z,35.00
2019-05-05T14:51:34.847Z,35.10
2019-05-05T14:54:04.787Z,35.00
2019-05-05T14:56:36.449Z,34.60
2019-05-05T14:59:05.043Z,34.50
2019-05-05T15:01:34.399Z,33.40
2019-05-05T15:04:04.353Z,34.20
2019-05-05T15:06:38.807Z,34.30
2019-05-05T15:09:33.592Z,34.40
2019-05-05T15:12:20.956Z,34.60
2019-05-05T15:14:49.471Z,34.60
2019-05-05T15:17:17.754Z,34.50
2019-05-05T15:19:46.235Z,34.50
2019-05-05T15:22:15.125Z,35.10
2019-05-05T15:24:44.864Z,34.50
2019-05-05T15:27:13.207Z,34.60
2019-05-05T15:29:43.615Z,34.20
2019-05-05T15:32:12.192Z,34.00
2019-05-05T15:34:43.877Z,33.30
2019-05-05T15:37:14.310Z,32.60
2019-05-05T15:39:44.163Z,33.10
2019-05-05T15:42:12.769Z,33.00
2019-05-05T15:44:43.766Z,32.50
2019-05-05T15:47:12.563Z,32.60
2019-05-05T15:49:40.963Z,32.90
2019-05-05T15:52:09.593Z,33.20
2019-05-05T15:54:38.251Z,33.20
2019-05-05T15:57:08.774Z,33.50
2019-05-05T15:59:37.531Z,33.70
2019-05-05T16:02:06.171Z,33.40
2019-05-05T16:04:34.610Z,33.20
2019-05-05T16:07:04.602Z,33.30
2019-05-05T16:09:33.234Z,33.30
2019-05-05T16:12:03.786Z,32.60
2019-05-05T16:14:33.803Z,32.90
2019-05-05T16:17:24.594Z,32.70
2019-05-05T16:20:07.991Z,32.90
2019-05-05T16:22:56.442Z,32.80
2019-05-05T16:25:26.417Z,33.90
2019-05-05T16:27:55.082Z,35.00
2019-05-05T16:30:23.789Z,35.40
2019-05-05T16:32:54.998Z,35.00
2019-05-05T16:35:24.931Z,34.20
2019-05-05T16:37:53.503Z,34.20
2019-05-05T16:40:25.285Z,34.20
2019-05-05T16:42:54.354Z,33.70
2019-05-05T16:45:24.686Z,33.70
2019-05-05T16:47:54.551Z,33.70
2019-05-05T16:50:25.060Z,33.80
2019-05-05T16:53:03.811Z,33.80
2019-05-05T16:55:54.373Z,34.00
2019-05-05T16:58:24.052Z,34.10
2019-05-05T17:00:54.404Z,34.20
2019-05-05T17:03:23.969Z,34.70
2019-05-05T17:05:54.599Z,34.90
2019-05-05T17:08:24.517Z,34.60
2019-05-05T17:10:53.189Z,34.80
2019-05-05T17:13:29.000Z,33.90
2019-05-05T17:16:07.157Z,33.70
2019-05-05T17:19:04.735Z,33.80
2019-05-05T17:21:53.724Z,33.40
2019-05-05T17:24:23.939Z,33.80
2019-05-05T17:26:55.085Z,34.10
2019-05-05T17:29:24.049Z,34.10
2019-05-05T17:31:54.089Z,34.50
2019-05-05T17:34:24.641Z,34.70
2019-05-05T17:36:55.418Z,34.80
2019-05-05T17:39:26.003Z,35.30
2019-05-05T17:42:14.232Z,35.60
2019-05-05T17:44:58.487Z,36.00
2019-05-05T17:47:34.372Z,36.00
2019-05-05T17:50:40.330Z,35.60
2019-05-05T17:53:28.365Z,35.30
2019-05-05T17:55:57.463Z,35.40
2019-05-05T17:58:27.639Z,35.50
2019-05-05T18:00:59.505Z,35.60
2019-05-05T18:03:28.187Z,35.40
2019-05-05T18:06:16.766Z,35.60
2019-05-05T18:08:48.272Z,35.70
2019-05-05T18:11:22.036Z,36.10
2019-05-05T18:13:54.880Z,36.40
2019-05-05T18:16:26.830Z,36.60
2019-05-05T18:18:55.001Z,36.80
2019-05-05T18:21:23.761Z,36.90
2019-05-05T18:23:54.597Z,37.00
2019-05-05T18:26:24.340Z,37.10
2019-05-05T18:28:54.167Z,37.50
2019-05-05T18:31:24.252Z,37.60
2019-05-05T18:33:54.326Z,37.80
2019-05-05T18:36:23.153Z,37.80
2019-05-05T18:38:54.038Z,38.20
2019-05-05T18:41:37.041Z,37.80
2019-05-05T18:44:16.702Z,38.20
2019-05-05T18:46:47.552Z,38.30
2019-05-05T18:49:16.241Z,38.40
2019-05-05T18:51:45.128Z,38.60
2019-05-05T18:54:13.775Z,38.70
2019-05-05T18:56:43.885Z,39.00
2019-05-05T18:59:12.687Z,39.20
2019-05-05T19:01:54.278Z,39.60
2019-05-05T19:04:32.224Z,39.70
2019-05-05T19:07:06.956Z,40.00
2019-05-05T19:09:35.683Z,40.00
2019-05-05T19:12:04.226Z,40.20
2019-05-05T19:14:34.873Z,40.30
2019-05-05T19:17:04.531Z,40.60
2019-05-05T19:19:34.519Z,40.80
2019-05-05T19:22:08.544Z,41.00
2019-05-05T19:24:37.040Z,41.10
2019-05-05T19:27:05.631Z,41.10
2019-05-05T19:29:34.763Z,41.60
2019-05-05T19:32:04.092Z,41.70
2019-05-05T19:34:35.091Z,41.90
2019-05-05T19:37:03.930Z,42.10
2019-05-05T19:39:34.560Z,42.30
2019-05-05T19:42:04.820Z,42.60
2019-05-05T19:44:33.911Z,42.70
2019-05-05T19:47:14.340Z,42.90
2019-05-05T19:49:48.191Z,43.00
2019-05-05T19:52:16.856Z,43.20
2019-05-05T19:54:47.580Z,43.40
2019-05-05T19:57:16.073Z,43.70
2019-05-05T19:59:44.804Z,43.90
2019-05-05T20:02:13.441Z,44.10
2019-05-05T20:04:44.339Z,44.00
2019-05-05T20:07:13.992Z,44.70
2019-05-05T20:09:43.613Z,44.00
2019-05-05T20:12:14.630Z,44.10
2019-05-05T20:14:44.229Z,44.30
2019-05-05T20:17:27.114Z,44.70
2019-05-05T20:19:56.153Z,44.30
2019-05-05T20:22:24.747Z,44.20
2019-05-05T20:24:54.105Z,44.00
2019-05-05T20:27:23.559Z,43.60
2019-05-05T20:29:54.274Z,43.60
2019-05-05T20:32:29.727Z,43.60
2019-05-05T20:35:19.758Z,43.30
2019-05-05T20:37:53.937Z,43.30
2019-05-05T20:40:28.653Z,43.30
2019-05-05T20:42:57.250Z,43.00
2019-05-05T20:45:28.102Z,43.10
2019-05-05T20:47:56.536Z,42.90
2019-05-05T20:50:25.497Z,42.90
2019-05-05T20:52:54.192Z,42.80
2019-05-05T20:55:22.930Z,42.40
2019-05-05T20:57:53.560Z,42.50
2019-05-05T21:00:23.876Z,42.40
2019-05-05T21:02:53.811Z,42.50
2019-05-05T21:05:24.149Z,42.10
2019-05-05T21:07:52.767Z,42.00
2019-05-05T21:10:21.181Z,42.10
2019-05-05T21:12:49.684Z,42.20
2019-05-05T21:15:18.547Z,41.90
2019-05-05T21:17:47.191Z,41.80
2019-05-05T21:20:16.184Z,41.90
2019-05-05T21:23:03.669Z,42.00
2019-05-05T21:25:37.077Z,41.90
2019-05-05T21:28:05.894Z,41.70
2019-05-05T21:30:36.448Z,41.70
2019-05-05T21:33:05.244Z,41.80
2019-05-05T21:35:34.824Z,41.60
2019-05-05T21:38:04.707Z,41.90
2019-05-05T21:40:35.825Z,41.80
2019-05-05T21:43:05.178Z,42.00
2019-05-05T21:45:34.674Z,41.90
2019-05-05T21:48:06.456Z,41.90
2019-05-05T21:50:40.153Z,42.10
2019-05-05T21:53:18.029Z,42.20
2019-05-05T21:56:21.647Z,42.20
2019-05-05T21:58:50.360Z,42.30
2019-05-05T22:01:20.965Z,42.40
2019-05-05T22:03:49.498Z,42.40
2019-05-05T22:06:18.313Z,42.60
2019-05-05T22:08:47.537Z,42.90
2019-05-05T22:11:16.346Z,42.60
2019-05-05T22:13:45.037Z,42.80
2019-05-05T22:16:13.783Z,42.90
2019-05-05T22:18:44.724Z,42.90
2019-05-05T22:21:35.705Z,43.20
2019-05-05T22:24:17.523Z,42.90
2019-05-05T22:26:46.325Z,43.30
2019-05-05T22:29:16.886Z,43.50
2019-05-05T22:31:45.495Z,43.40
2019-05-05T22:34:14.709Z,43.70
2019-05-05T22:36:44.820Z,43.60
2019-05-05T22:39:16.649Z,44.30
2019-05-05T22:41:46.538Z,43.70
2019-05-05T22:44:14.837Z,43.90
2019-05-05T22:46:43.664Z,43.80
2019-05-05T22:49:14.583Z,44.00
2019-05-05T22:51:44.735Z,44.10
2019-05-05T22:54:14.963Z,44.10
2019-05-05T22:56:44.921Z,44.30
2019-05-05T22:59:14.200Z,44.40
2019-05-05T23:01:42.872Z,44.50
2019-05-05T23:04:23.985Z,44.70
2019-05-05T23:07:00.141Z,44.80
2019-05-05T23:09:30.046Z,44.90
2019-05-05T23:11:58.479Z,44.80
2019-05-05T23:14:27.458Z,44.90
2019-05-05T23:17:16.897Z,45.10
2019-05-05T23:19:51.272Z,45.10
2019-05-05T23:22:29.587Z,45.30
2019-05-05T23:25:04.171Z,45.20
2019-05-05T23:27:48.882Z,45.50
2019-05-05T23:30:18.867Z,45.70
2019-05-05T23:32:48.066Z,45.70
2019-05-05T23:35:17.080Z,45.70
2019-05-05T23:37:46.121Z,46.60
2019-05-05T23:40:21.838Z,46.00
2019-05-05T23:42:54.060Z,46.10
2019-05-05T23:45:24.890Z,46.10
2019-05-05T23:47:54.455Z,46.20
2019-05-05T23:50:23.443Z,46.70
2019-05-05T23:52:54.317Z,46.80
2019-05-05T23:55:23.989Z,47.00
2019-05-05T23:57:54.688Z,47.00
